LAX weather

Los Angeles International Airport
Los Angeles, California, United States

Public forecast

Using degrees Fahrenheit for public forecast. Weather courtesy of forecast.io.

METAR (pilot weather report)

Retrieved 2019/02/17 13:53 UTC (42 minutes ago):

KLAX 171353Z 34006KT 10SM FEW020 FEW075 09/04 A3006 RMK AO2 SLP179 T00890039

TAF (pilot weather forecast)

Retrieved 2019/02/17 12:00 UTC (3 hours ago):

TAF KLAX 171157Z 1712/1818 34006KT P6SM SCT050 FM171500 27015G23KT P6SM SCT030 BKN060 FM172000 24020G30KT 5SM -SHRA BR OVC025 FM180000 27025G33KT P6SM VCSH BKN035 FM180400 29018G28KT P6SM BKN050 FM180900 30015KT P6SM SCT050 FM181500 34008KT P6SM SCT050